Ahmeek, Michigan
Current Conditions -  °F | °C
As of 10:53 PM on Wednesday 26 Nov 2014 (Local Time) from KCMX Reporting Station
Light Snow Light Snow  
Wind Chill:   Ceiling: 1200
Heat Index: 15°   Visibility: 1mi
Dew Point:   Wind: 9mph
Humidity: 77%   Direction: 350°N
Pressure: 30.2"   Gusts: NA
Location:  47.3°N, 88.4°W
Report Text: KCMX 270353Z AUTO 35008KT 1SM -SN VV012 M09/M13 A3020 RMK AO2 SLP250 P0000 T10941128
Loading
Personal Weather Stations






























Interactive Weather Map New forecast layout! Learn more

10-Day Weather Forecast

Advertisements
Track Severe Weather on mobile